Time;durP1;ratioP1;P1;durP2;ratioP2;P2;SDS_P1;SDS_P2;PMS_P1;PMS_P2;Temp;Humidity;BMP_temperature;BMP_pressure;BME280_temperature;BME280_humidity;BME280_pressure;Samples;Min_cycle;Max_cycle;Signal;HPM_P1;HPM_P2
2023/02/12 00:01:38;;;;;;;;;;;30.50;92.40;;;;;;5025010;28;19963;-60
2023/02/12 00:04:07;;;;;;;;;;;30.60;91.90;;;;;;5024687;28;19929;-71
2023/02/12 00:06:34;;;;;;;;;;;30.70;92.60;;;;;;5024418;28;19971;-62
2023/02/12 00:09:00;;;;;;;;;;;31.00;91.90;;;;;;5024337;28;19916;-62
2023/02/12 00:11:27;;;;;;;;;;;31.20;91.60;;;;;;5025458;28;20432;-66
2023/02/12 00:13:54;;;;;;;;;;;30.90;91.80;;;;;;5024448;28;20356;-63
2023/02/12 00:16:22;;;;;;;;;;;30.90;92.10;;;;;;5024574;28;20297;-63
2023/02/12 00:18:51;;;;;;;;;;;31.20;91.80;;;;;;5023957;28;19928;-63
2023/02/12 00:21:17;;;;;;;;;;;31.70;91.80;;;;;;5017098;28;20012;-67
2023/02/12 00:23:43;;;;;;;;;;;31.80;91.00;;;;;;5022727;28;19917;-66
2023/02/12 00:26:11;;;;;;;;;;;31.70;91.50;;;;;;5024584;28;19917;-66
2023/02/12 00:28:38;;;;;;;;;;;31.60;91.70;;;;;;5020462;28;20278;-63
2023/02/12 00:31:05;;;;;;;;;;;31.70;91.40;;;;;;5023940;28;19913;-70
2023/02/12 00:33:32;;;;;;;;;;;31.70;91.20;;;;;;5023159;28;19939;-62
2023/02/12 00:35:58;;;;;;;;;;;31.70;91.10;;;;;;5022027;28;19972;-65
2023/02/12 00:38:24;;;;;;;;;;;31.40;91.00;;;;;;5023180;28;20368;-67
2023/02/12 00:40:51;;;;;;;;;;;31.00;91.50;;;;;;5025888;28;19912;-68
2023/02/12 00:43:17;;;;;;;;;;;30.80;91.60;;;;;;5022994;28;19962;-67
2023/02/12 00:45:44;;;;;;;;;;;30.70;92.00;;;;;;5024802;28;20530;-64
2023/02/12 00:48:11;;;;;;;;;;;30.50;92.20;;;;;;5020891;28;19912;-64
2023/02/12 00:50:39;;;;;;;;;;;30.50;92.30;;;;;;5020758;28;20067;-62
2023/02/12 00:53:06;;;;;;;;;;;30.60;92.00;;;;;;5024139;28;19920;-64
2023/02/12 00:55:33;;;;;;;;;;;31.00;91.60;;;;;;5024180;28;19920;-70
2023/02/12 00:58:00;;;;;;;;;;;30.80;92.30;;;;;;5019686;28;20373;-69
2023/02/12 01:00:26;;;;;;;;;;;30.50;92.40;;;;;;5025905;28;20126;-65
2023/02/12 01:02:53;;;;;;;;;;;30.30;92.70;;;;;;5025600;28;19960;-66
2023/02/12 01:05:19;;;;;;;;;;;31.00;92.50;;;;;;5025343;28;19967;-65
2023/02/12 01:07:52;;;;;;;;;;;31.50;92.50;;;;;;5022577;28;20215;-65
2023/02/12 01:10:19;;;;;;;;;;;31.90;91.40;;;;;;5020102;28;19917;-64
2023/02/12 01:12:46;;;;;;;;;;;32.30;90.90;;;;;;5022813;28;19909;-63
2023/02/12 01:15:13;;;;;;;;;;;33.00;91.00;;;;;;5023370;28;19913;-65
2023/02/12 01:17:40;;;;;;;;;;;33.60;90.50;;;;;;5022287;28;19920;-68
2023/02/12 01:20:07;;;;;;;;;;;33.70;90.30;;;;;;5017899;28;19967;-69
2023/02/12 01:22:34;;;;;;;;;;;33.70;90.20;;;;;;5023884;28;20361;-69
2023/02/12 01:25:00;;;;;;;;;;;33.30;90.10;;;;;;4675802;28;10000180;-69
2023/02/12 01:27:27;;;;;;;;;;;32.70;90.60;;;;;;5024386;28;19935;-65
2023/02/12 01:29:53;;;;;;;;;;;32.10;90.90;;;;;;5023724;28;20297;-62
2023/02/12 01:32:19;;;;;;;;;;;31.80;91.70;;;;;;5023851;28;19952;-67
2023/02/12 01:34:46;;;;;;;;;;;31.60;92.10;;;;;;5019258;28;20375;-64
2023/02/12 01:37:12;;;;;;;;;;;31.30;91.90;;;;;;5019915;28;20011;-65
2023/02/12 01:39:39;;;;;;;;;;;31.20;92.50;;;;;;5019149;28;19959;-70
2023/02/12 01:42:05;;;;;;;;;;;31.20;92.80;;;;;;5020735;28;19924;-66
2023/02/12 01:44:34;;;;;;;;;;;31.70;92.40;;;;;;5020657;28;19916;-69
2023/02/12 01:47:01;;;;;;;;;;;32.60;91.40;;;;;;5017524;28;19975;-67
2023/02/12 01:49:35;;;;;;;;;;;33.00;91.80;;;;;;5018798;28;20297;-64
2023/02/12 01:52:04;;;;;;;;;;;32.70;91.40;;;;;;5019619;28;20690;-68
2023/02/12 01:54:32;;;;;;;;;;;32.20;91.70;;;;;;5020413;28;19966;-68
2023/02/12 01:56:59;;;;;;;;;;;32.00;92.10;;;;;;5021749;28;19924;-63
2023/02/12 01:59:26;;;;;;;;;;;31.30;92.50;;;;;;5020341;28;19924;-64
2023/02/12 02:01:53;;;;;;;;;;;31.00;92.60;;;;;;4673126;28;9999713;-67
2023/02/12 02:04:21;;;;;;;;;;;30.80;92.60;;;;;;5019632;28;19927;-68
2023/02/12 02:06:56;;;;;;;;;;;30.70;92.80;;;;;;5020675;28;19924;-69
2023/02/12 02:09:23;;;;;;;;;;;30.80;92.80;;;;;;5018138;28;19913;-64
2023/02/12 02:14:35;;;;;;;;;;;31.70;92.20;;;;;;5020535;28;19920;-65
2023/02/12 02:17:20;;;;;;;;;;;32.60;91.70;;;;;;5020572;28;19995;-68
2023/02/12 02:19:49;;;;;;;;;;;33.20;91.90;;;;;;5020178;28;19909;-68
2023/02/12 02:22:41;;;;;;;;;;;33.70;90.10;;;;;;5018402;28;19913;-64
2023/02/12 02:25:31;;;;;;;;;;;33.90;90.60;;;;;;5016269;28;19935;-68
2023/02/12 02:27:57;;;;;;;;;;;34.00;90.00;;;;;;5020509;28;19940;-62
2023/02/12 02:30:26;;;;;;;;;;;33.40;91.00;;;;;;5019944;28;19931;-62
2023/02/12 02:33:08;;;;;;;;;;;32.80;91.00;;;;;;4994460;28;20007;-63
2023/02/12 02:35:52;;;;;;;;;;;32.40;91.10;;;;;;5019080;28;20019;-67
2023/02/12 02:38:41;;;;;;;;;;;32.60;91.30;;;;;;5020427;28;19916;-62
2023/02/12 02:41:26;;;;;;;;;;;32.60;90.80;;;;;;5013922;28;19909;-62
2023/02/12 02:43:53;;;;;;;;;;;31.50;92.10;;;;;;5014057;28;19935;-67
2023/02/12 02:46:25;;;;;;;;;;;31.40;92.30;;;;;;5019289;28;19919;-62
2023/02/12 02:49:00;;;;;;;;;;;32.00;92.00;;;;;;5018574;28;20541;-63
2023/02/12 02:51:31;;;;;;;;;;;32.50;91.50;;;;;;5020465;28;19909;-62
2023/02/12 02:54:03;;;;;;;;;;;32.70;91.20;;;;;;5018770;28;19964;-68
2023/02/12 02:56:30;;;;;;;;;;;33.10;91.00;;;;;;5000916;28;19914;-63
2023/02/12 02:59:04;;;;;;;;;;;33.70;90.20;;;;;;5019683;28;19920;-68
2023/02/12 03:01:38;;;;;;;;;;;33.50;90.60;;;;;;5018706;28;19923;-68
2023/02/12 03:04:06;;;;;;;;;;;33.00;90.80;;;;;;5019129;28;19921;-63
2023/02/12 03:06:32;;;;;;;;;;;32.20;91.60;;;;;;5018984;28;19955;-62
2023/02/12 03:09:05;;;;;;;;;;;32.00;91.50;;;;;;5016874;28;19909;-66
2023/02/12 03:11:32;;;;;;;;;;;32.40;91.60;;;;;;5019287;28;19963;-64
2023/02/12 03:14:06;;;;;;;;;;;32.10;91.70;;;;;;5020175;28;19909;-68
2023/02/12 03:16:39;;;;;;;;;;;32.80;91.40;;;;;;5020286;28;20597;-64
2023/02/12 03:19:11;;;;;;;;;;;32.40;91.10;;;;;;5023855;28;19913;-69
2023/02/12 03:21:50;;;;;;;;;;;32.60;91.20;;;;;;5022281;28;19909;-71
2023/02/12 03:24:37;;;;;;;;;;;32.50;91.50;;;;;;5004942;28;20345;-68
2023/02/12 03:27:13;;;;;;;;;;;33.10;90.90;;;;;;5019570;28;20327;-69
2023/02/12 03:29:39;;;;;;;;;;;33.40;90.30;;;;;;5023197;28;20000;-68
2023/02/12 03:32:09;;;;;;;;;;;33.20;90.40;;;;;;5023990;28;20264;-68
2023/02/12 03:34:45;;;;;;;;;;;33.10;90.40;;;;;;5020884;28;19909;-69
2023/02/12 03:37:20;;;;;;;;;;;33.10;90.60;;;;;;5023454;28;19968;-67
2023/02/12 03:40:02;;;;;;;;;;;33.40;90.10;;;;;;5023351;28;20247;-63
2023/02/12 03:42:37;;;;;;;;;;;33.60;90.30;;;;;;5023213;28;20412;-65
2023/02/12 03:45:04;;;;;;;;;;;33.50;89.70;;;;;;5023557;28;20000;-63
2023/02/12 03:47:36;;;;;;;;;;;33.20;90.10;;;;;;5022835;28;19948;-68
2023/02/12 03:50:22;;;;;;;;;;;32.90;90.40;;;;;;5011557;28;19921;-66
2023/02/12 03:52:49;;;;;;;;;;;32.80;90.20;;;;;;5022402;28;20384;-65
2023/02/12 03:55:16;;;;;;;;;;;33.00;90.50;;;;;;5022089;28;20292;-64
2023/02/12 03:57:44;;;;;;;;;;;32.70;90.00;;;;;;5022891;28;20032;-68
2023/02/12 04:00:16;;;;;;;;;;;32.40;90.50;;;;;;5020988;28;19998;-63
2023/02/12 04:02:42;;;;;;;;;;;32.60;90.30;;;;;;5018802;28;19917;-65
2023/02/12 04:05:16;;;;;;;;;;;32.90;90.10;;;;;;5022373;28;19980;-62
2023/02/12 04:07:43;;;;;;;;;;;32.80;90.30;;;;;;5022507;28;19909;-62
2023/02/12 04:10:09;;;;;;;;;;;32.80;89.80;;;;;;5022882;28;19916;-66
2023/02/12 04:12:36;;;;;;;;;;;32.80;90.60;;;;;;5021589;28;19917;-62
2023/02/12 04:15:20;;;;;;;;;;;32.80;90.30;;;;;;5024457;28;19917;-69
2023/02/12 04:17:47;;;;;;;;;;;32.80;90.30;;;;;;5020456;28;20349;-67
2023/02/12 04:20:16;;;;;;;;;;;32.70;90.20;;;;;;5017692;28;19944;-68
2023/02/12 04:22:52;;;;;;;;;;;32.60;90.20;;;;;;5025591;28;19915;-65
2023/02/12 04:25:37;;;;;;;;;;;32.80;90.70;;;;;;5025003;28;19972;-69
2023/02/12 04:28:28;;;;;;;;;;;33.10;90.10;;;;;;5023246;28;19916;-63
2023/02/12 04:31:22;;;;;;;;;;;33.00;90.40;;;;;;5023584;28;19913;-63
2023/02/12 04:33:54;;;;;;;;;;;32.20;90.30;;;;;;5020058;28;20008;-64
2023/02/12 04:36:22;;;;;;;;;;;32.80;90.30;;;;;;5024919;28;20481;-66
2023/02/12 04:38:52;;;;;;;;;;;32.50;89.80;;;;;;5018754;28;19913;-69
2023/02/12 04:41:19;;;;;;;;;;;31.80;90.40;;;;;;5021967;28;19909;-65
2023/02/12 04:43:45;;;;;;;;;;;31.60;91.10;;;;;;5023920;28;19920;-66
2023/02/12 04:46:12;;;;;;;;;;;31.50;90.40;;;;;;5024222;28;19999;-67
2023/02/12 04:48:47;;;;;;;;;;;31.40;90.70;;;;;;5021638;28;20003;-62
2023/02/12 04:51:13;;;;;;;;;;;31.80;90.50;;;;;;5006997;28;20015;-63
2023/02/12 04:53:40;;;;;;;;;;;32.30;89.90;;;;;;5023341;28;20384;-63
2023/02/12 04:56:08;;;;;;;;;;;32.80;90.10;;;;;;5024419;28;19917;-62
2023/02/12 04:58:36;;;;;;;;;;;33.40;88.70;;;;;;5017092;28;19983;-63
2023/02/12 05:01:03;;;;;;;;;;;33.50;90.00;;;;;;5004115;28;19921;-68
2023/02/12 05:03:29;;;;;;;;;;;33.20;89.00;;;;;;5003417;28;19913;-63
2023/02/12 05:05:55;;;;;;;;;;;33.20;89.60;;;;;;5003310;28;20334;-63
2023/02/12 05:08:22;;;;;;;;;;;33.20;89.20;;;;;;5002752;28;19913;-68
2023/02/12 05:10:48;;;;;;;;;;;33.00;90.30;;;;;;5003900;28;19918;-67
2023/02/12 05:13:14;;;;;;;;;;;33.10;88.90;;;;;;5002084;28;20358;-64
2023/02/12 05:15:41;;;;;;;;;;;33.50;89.00;;;;;;4981910;28;20067;-67
2023/02/12 05:18:07;;;;;;;;;;;33.70;88.00;;;;;;4999631;28;20060;-67
2023/02/12 05:20:34;;;;;;;;;;;33.00;90.00;;;;;;5002437;28;19999;-63
2023/02/12 05:23:01;;;;;;;;;;;33.40;88.80;;;;;;4985651;28;19957;-65
2023/02/12 05:25:27;;;;;;;;;;;33.30;88.90;;;;;;5003564;28;20370;-63
2023/02/12 05:27:57;;;;;;;;;;;32.40;90.20;;;;;;5002355;28;19913;-68
2023/02/12 05:30:23;;;;;;;;;;;32.00;90.70;;;;;;5003222;28;19920;-67
2023/02/12 05:32:50;;;;;;;;;;;32.10;90.30;;;;;;5001901;28;19917;-61
2023/02/12 05:35:16;;;;;;;;;;;32.20;90.40;;;;;;5001615;28;19920;-62
2023/02/12 05:37:42;;;;;;;;;;;32.20;90.20;;;;;;5001970;28;20301;-66
2023/02/12 05:40:09;;;;;;;;;;;31.50;91.00;;;;;;5001667;28;19913;-70
2023/02/12 05:42:35;;;;;;;;;;;30.70;91.60;;;;;;5002376;28;19913;-68
2023/02/12 05:45:02;;;;;;;;;;;30.00;92.40;;;;;;5001957;28;19918;-68
2023/02/12 05:47:28;;;;;;;;;;;29.80;92.90;;;;;;5001269;28;20424;-63
2023/02/12 05:49:54;;;;;;;;;;;29.60;93.20;;;;;;4999514;28;19913;-62
2023/02/12 05:52:21;;;;;;;;;;;29.10;93.90;;;;;;5001680;28;20017;-71
2023/02/12 05:54:50;;;;;;;;;;;29.10;93.70;;;;;;5001268;28;20341;-73
2023/02/12 05:57:16;;;;;;;;;;;29.50;94.00;;;;;;4991085;28;20188;-73
2023/02/12 05:59:43;;;;;;;;;;;30.40;93.50;;;;;;5015974;28;19982;-62
2023/02/12 06:02:09;;;;;;;;;;;30.40;92.80;;;;;;5023431;28;20404;-64
2023/02/12 06:04:35;;;;;;;;;;;29.90;93.10;;;;;;5022388;28;19916;-68
2023/02/12 06:07:02;;;;;;;;;;;29.80;93.40;;;;;;5021791;28;20274;-67
2023/02/12 06:09:28;;;;;;;;;;;29.40;93.60;;;;;;5022000;28;19909;-62
2023/02/12 06:11:54;;;;;;;;;;;29.20;94.00;;;;;;5021209;28;19920;-68
2023/02/12 06:14:21;;;;;;;;;;;29.00;94.90;;;;;;5021767;28;19917;-67
2023/02/12 06:16:48;;;;;;;;;;;29.10;94.40;;;;;;5020115;28;20308;-70
2023/02/12 06:19:15;;;;;;;;;;;28.90;94.20;;;;;;5022053;28;19917;-67
2023/02/12 06:21:41;;;;;;;;;;;28.50;94.60;;;;;;5022735;28;20237;-64
2023/02/12 06:24:09;;;;;;;;;;;28.40;94.90;;;;;;5021770;28;19917;-63
2023/02/12 06:26:35;;;;;;;;;;;28.30;95.10;;;;;;5020385;28;20346;-64
2023/02/12 06:29:02;;;;;;;;;;;28.20;95.30;;;;;;4672689;28;10000338;-62
2023/02/12 06:31:30;;;;;;;;;;;28.20;95.10;;;;;;5019902;28;19972;-63
2023/02/12 06:34:00;;;;;;;;;;;28.10;95.80;;;;;;5019457;28;20373;-62
2023/02/12 06:36:26;;;;;;;;;;;28.10;95.90;;;;;;5018934;28;19919;-61
2023/02/12 06:38:53;;;;;;;;;;;28.00;96.00;;;;;;5019093;28;19917;-62
2023/02/12 06:41:19;;;;;;;;;;;27.80;96.20;;;;;;5019191;28;20330;-62
2023/02/12 06:43:46;;;;;;;;;;;27.70;96.70;;;;;;5019241;28;20431;-64
2023/02/12 06:46:13;;;;;;;;;;;27.80;96.70;;;;;;5020061;28;19984;-65
2023/02/12 06:48:40;;;;;;;;;;;27.90;97.10;;;;;;5015883;28;19940;-66
2023/02/12 06:51:07;;;;;;;;;;;27.80;96.90;;;;;;5022729;28;19917;-64
2023/02/12 06:53:34;;;;;;;;;;;27.70;97.00;;;;;;5027886;28;20006;-63
2023/02/12 06:56:03;;;;;;;;;;;27.70;97.30;;;;;;5028606;28;19916;-61
2023/02/12 06:58:30;;;;;;;;;;;27.40;97.70;;;;;;5021375;28;19948;-64
2023/02/12 07:00:57;;;;;;;;;;;27.50;98.00;;;;;;5005473;28;19910;-61
2023/02/12 07:03:23;;;;;;;;;;;27.40;98.20;;;;;;5001691;28;19925;-64
2023/02/12 07:05:49;;;;;;;;;;;27.10;98.50;;;;;;5004955;28;19917;-66
2023/02/12 07:08:16;;;;;;;;;;;26.90;99.40;;;;;;5006693;28;19905;-64
2023/02/12 07:10:42;;;;;;;;;;;26.70;99.90;;;;;;5006790;28;19909;-64
2023/02/12 07:13:09;;;;;;;;;;;26.40;99.90;;;;;;5006822;28;19919;-65
2023/02/12 07:15:37;;;;;;;;;;;26.20;99.90;;;;;;5006408;28;19913;-68
2023/02/12 07:18:04;;;;;;;;;;;26.10;99.90;;;;;;5005117;28;19918;-69
2023/02/12 07:20:30;;;;;;;;;;;26.10;99.90;;;;;;5005877;28;19948;-64
2023/02/12 07:22:56;;;;;;;;;;;25.90;99.90;;;;;;5005490;28;19960;-66
2023/02/12 07:25:23;;;;;;;;;;;25.80;99.90;;;;;;5005140;28;19928;-66
2023/02/12 07:27:49;;;;;;;;;;;25.50;99.90;;;;;;5005505;28;19913;-66
2023/02/12 07:30:15;;;;;;;;;;;25.30;99.90;;;;;;5004668;28;19914;-67
2023/02/12 07:32:42;;;;;;;;;;;25.30;99.90;;;;;;4985298;28;20269;-67
2023/02/12 07:35:08;;;;;;;;;;;25.30;99.90;;;;;;5003628;28;19914;-67
2023/02/12 07:37:35;;;;;;;;;;;25.20;99.90;;;;;;5002947;28;20329;-65
2023/02/12 07:40:01;;;;;;;;;;;25.30;99.90;;;;;;5003393;28;19920;-68
2023/02/12 07:42:29;;;;;;;;;;;25.20;99.90;;;;;;5002341;28;19918;-62
2023/02/12 07:44:55;;;;;;;;;;;25.20;99.90;;;;;;5001282;28;19937;-62
2023/02/12 07:47:21;;;;;;;;;;;25.20;99.90;;;;;;5002368;28;20337;-61
2023/02/12 07:49:48;;;;;;;;;;;25.20;99.90;;;;;;5001847;28;20039;-66
2023/02/12 07:52:14;;;;;;;;;;;25.10;99.90;;;;;;5001804;28;20380;-66
2023/02/12 07:54:40;;;;;;;;;;;24.90;99.90;;;;;;5001952;28;19960;-60
2023/02/12 07:57:07;;;;;;;;;;;24.80;99.90;;;;;;5003030;28;20495;-62
2023/02/12 07:59:33;;;;;;;;;;;24.80;99.90;;;;;;5003653;28;19925;-62
2023/02/12 08:01:59;;;;;;;;;;;24.70;99.90;;;;;;5002067;28;20672;-65
2023/02/12 08:04:26;;;;;;;;;;;24.50;99.90;;;;;;5000425;28;19921;-60
2023/02/12 08:06:53;;;;;;;;;;;24.40;99.90;;;;;;4997297;28;19913;-67
2023/02/12 08:09:21;;;;;;;;;;;24.40;99.90;;;;;;4999324;28;19921;-62
2023/02/12 08:11:48;;;;;;;;;;;24.40;99.90;;;;;;4999657;28;20330;-63
2023/02/12 08:14:16;;;;;;;;;;;24.50;99.90;;;;;;4996611;28;19913;-58
2023/02/12 08:16:43;;;;;;;;;;;24.50;99.90;;;;;;4997986;28;20427;-62
2023/02/12 08:19:10;;;;;;;;;;;24.50;99.90;;;;;;4994973;28;20404;-63
2023/02/12 08:21:36;;;;;;;;;;;24.50;99.90;;;;;;5000568;28;19913;-64
2023/02/12 08:24:03;;;;;;;;;;;24.50;99.90;;;;;;5000642;28;20294;-59
2023/02/12 08:26:30;;;;;;;;;;;24.50;99.90;;;;;;5000303;28;20363;-65
2023/02/12 08:29:01;;;;;;;;;;;24.40;99.90;;;;;;4999693;28;19945;-61
2023/02/12 08:31:29;;;;;;;;;;;24.40;99.90;;;;;;4998311;28;19920;-71
2023/02/12 08:33:56;;;;;;;;;;;24.30;99.90;;;;;;4999018;28;20304;-60
2023/02/12 08:36:24;;;;;;;;;;;24.30;99.90;;;;;;5000378;28;19967;-60
2023/02/12 08:38:51;;;;;;;;;;;24.10;99.90;;;;;;4980027;28;19991;-66
2023/02/12 08:41:17;;;;;;;;;;;24.00;99.90;;;;;;5000544;28;20001;-62
2023/02/12 08:43:44;;;;;;;;;;;24.10;99.90;;;;;;4982107;28;19917;-61
2023/02/12 08:46:11;;;;;;;;;;;24.00;99.90;;;;;;4998379;28;19999;-62
2023/02/12 08:48:38;;;;;;;;;;;24.10;99.90;;;;;;4997717;28;19927;-67
2023/02/12 08:51:06;;;;;;;;;;;24.00;99.90;;;;;;5000784;28;19925;-62
2023/02/12 08:53:33;;;;;;;;;;;24.10;99.90;;;;;;5001179;28;20399;-63
2023/02/12 08:55:59;;;;;;;;;;;24.00;99.90;;;;;;5000295;28;19986;-60
2023/02/12 08:58:26;;;;;;;;;;;23.90;99.90;;;;;;5000190;28;20341;-62
2023/02/12 09:00:52;;;;;;;;;;;23.90;99.90;;;;;;5001500;28;19955;-61
2023/02/12 09:03:18;;;;;;;;;;;24.00;99.90;;;;;;5001158;28;19920;-66
2023/02/12 09:05:45;;;;;;;;;;;24.00;99.90;;;;;;4999819;28;19932;-67
2023/02/12 09:08:11;;;;;;;;;;;23.90;99.90;;;;;;5001040;28;19913;-60
2023/02/12 09:10:41;;;;;;;;;;;23.90;99.90;;;;;;5001098;28;20332;-65
2023/02/12 09:13:08;;;;;;;;;;;23.90;99.90;;;;;;5000147;28;19918;-66
2023/02/12 09:15:38;;;;;;;;;;;23.90;99.90;;;;;;5002283;28;19935;-64
2023/02/12 09:18:05;;;;;;;;;;;23.90;99.90;;;;;;5002701;28;19914;-66
2023/02/12 09:20:32;;;;;;;;;;;23.80;99.90;;;;;;5001222;28;20316;-67
2023/02/12 09:22:59;;;;;;;;;;;23.80;99.90;;;;;;5001802;28;19943;-64
2023/02/12 09:25:26;;;;;;;;;;;23.80;99.90;;;;;;5002528;28;19917;-64
2023/02/12 09:27:52;;;;;;;;;;;23.80;99.90;;;;;;5000485;28;19948;-63
2023/02/12 09:30:18;;;;;;;;;;;23.80;99.90;;;;;;5001389;28;20460;-63
2023/02/12 09:32:45;;;;;;;;;;;23.80;99.90;;;;;;5001228;28;19992;-62
2023/02/12 09:35:11;;;;;;;;;;;23.90;99.90;;;;;;5002405;28;19920;-64
2023/02/12 09:37:43;;;;;;;;;;;23.90;99.90;;;;;;5001793;28;19944;-64
2023/02/12 09:40:15;;;;;;;;;;;23.90;99.90;;;;;;5001871;28;19913;-69
2023/02/12 09:42:42;;;;;;;;;;;23.90;99.90;;;;;;5002220;28;20006;-62
2023/02/12 09:45:17;;;;;;;;;;;23.90;99.90;;;;;;5001101;28;20224;-66
2023/02/12 09:47:44;;;;;;;;;;;23.90;99.90;;;;;;5002045;28;20349;-66
2023/02/12 09:50:16;;;;;;;;;;;23.80;99.90;;;;;;5001220;28;20369;-60
2023/02/12 09:52:43;;;;;;;;;;;23.90;99.90;;;;;;5002681;28;19918;-66
2023/02/12 09:55:18;;;;;;;;;;;23.90;99.90;;;;;;5001956;28;20028;-60
2023/02/12 10:00:24;;;;;;;;;;;23.80;99.90;;;;;;5035741;28;20386;-69
2023/02/12 10:02:52;;;;;;;;;;;23.70;99.90;;;;;;5030559;28;19920;-69
2023/02/12 10:05:19;;;;;;;;;;;23.70;99.90;;;;;;5037505;28;19932;-63
2023/02/12 10:07:46;;;;;;;;;;;23.60;99.90;;;;;;5033754;28;20437;-59
2023/02/12 10:10:23;;;;;;;;;;;23.70;99.90;;;;;;5035518;28;20313;-59
2023/02/12 10:12:50;;;;;;;;;;;23.60;99.90;;;;;;5028730;28;20559;-60
2023/02/12 10:15:16;;;;;;;;;;;23.60;99.90;;;;;;5030562;28;19986;-69
2023/02/12 10:18:18;;;;;;;;;;;23.60;99.90;;;;;;5031183;28;19920;-61
2023/02/12 10:20:51;;;;;;;;;;;23.50;99.90;;;;;;4970717;28;19913;-58
2023/02/12 10:23:44;;;;;;;;;;;23.40;99.90;;;;;;4967781;28;20563;-59
2023/02/12 10:26:13;;;;;;;;;;;23.30;99.90;;;;;;4969121;28;19917;-69
2023/02/12 10:28:40;;;;;;;;;;;23.30;99.90;;;;;;4974160;28;20077;-63
2023/02/12 10:31:11;;;;;;;;;;;23.20;99.90;;;;;;4979422;28;19997;-68
2023/02/12 10:33:45;;;;;;;;;;;23.40;99.90;;;;;;4972014;28;20405;-67
2023/02/12 10:36:28;;;;;;;;;;;23.30;99.90;;;;;;4973524;28;19918;-61
2023/02/12 10:38:57;;;;;;;;;;;23.30;99.90;;;;;;4976431;28;19920;-62
2023/02/12 10:41:24;;;;;;;;;;;23.20;99.90;;;;;;4978107;28;19914;-66
2023/02/12 10:43:51;;;;;;;;;;;23.10;99.90;;;;;;4974347;28;19925;-59
2023/02/12 10:46:18;;;;;;;;;;;23.00;99.90;;;;;;4977690;28;20247;-61
2023/02/12 10:48:46;;;;;;;;;;;23.00;99.90;;;;;;4972432;28;20020;-62
2023/02/12 10:51:15;;;;;;;;;;;23.00;99.90;;;;;;4969352;28;20036;-68
2023/02/12 10:53:43;;;;;;;;;;;23.00;99.90;;;;;;4981784;28;19988;-62
2023/02/12 10:56:12;;;;;;;;;;;23.00;99.90;;;;;;5026475;28;19967;-60
2023/02/12 10:58:43;;;;;;;;;;;23.00;99.90;;;;;;5004978;28;19921;-60
2023/02/12 11:01:25;;;;;;;;;;;23.00;99.90;;;;;;5016793;28;19960;-68
2023/02/12 11:03:52;;;;;;;;;;;22.90;99.90;;;;;;5016880;28;20346;-59
2023/02/12 11:06:19;;;;;;;;;;;22.90;99.90;;;;;;5022265;28;19909;-68
2023/02/12 11:08:46;;;;;;;;;;;22.90;99.90;;;;;;4999546;28;20298;-61
2023/02/12 11:11:25;;;;;;;;;;;22.80;99.90;;;;;;5023768;28;19916;-69
2023/02/12 11:14:15;;;;;;;;;;;22.80;99.90;;;;;;5021866;28;19987;-62
2023/02/12 11:17:01;;;;;;;;;;;22.70;99.90;;;;;;5016587;28;19912;-60
2023/02/12 11:19:29;;;;;;;;;;;22.80;99.90;;;;;;5022379;28;19913;-60
2023/02/12 11:22:21;;;;;;;;;;;22.70;99.90;;;;;;5021237;28;19997;-59
2023/02/12 11:24:58;;;;;;;;;;;22.60;99.90;;;;;;5013361;28;19917;-59
2023/02/12 11:27:27;;;;;;;;;;;22.70;99.90;;;;;;5010985;28;19913;-61
2023/02/12 11:30:09;;;;;;;;;;;22.60;99.90;;;;;;5025956;28;20403;-59
2023/02/12 11:32:36;;;;;;;;;;;22.70;99.90;;;;;;5019815;28;19932;-69
2023/02/12 11:35:09;;;;;;;;;;;22.70;99.90;;;;;;5017786;28;19913;-66
2023/02/12 11:37:39;;;;;;;;;;;22.70;99.90;;;;;;5021019;28;19913;-68
2023/02/12 11:40:06;;;;;;;;;;;22.60;99.90;;;;;;5026519;28;19920;-62
2023/02/12 11:42:34;;;;;;;;;;;22.60;99.90;;;;;;5028840;28;20281;-60
2023/02/12 11:45:03;;;;;;;;;;;22.50;99.90;;;;;;5027273;28;19921;-66
2023/02/12 11:47:32;;;;;;;;;;;22.70;99.90;;;;;;5023788;28;19913;-65
2023/02/12 11:50:08;;;;;;;;;;;22.70;99.90;;;;;;5018432;28;19918;-67
2023/02/12 11:52:35;;;;;;;;;;;22.60;99.90;;;;;;5030256;28;19913;-61
2023/02/12 11:55:04;;;;;;;;;;;22.60;99.90;;;;;;5031962;28;20392;-68
2023/02/12 11:57:50;;;;;;;;;;;22.60;99.90;;;;;;5025874;28;19918;-60
2023/02/12 12:00:19;;;;;;;;;;;22.50;99.90;;;;;;5016975;28;20473;-59
2023/02/12 12:02:50;;;;;;;;;;;22.50;99.90;;;;;;5028791;28;19913;-60
2023/02/12 12:05:19;;;;;;;;;;;22.50;99.90;;;;;;5024755;28;20365;-60
2023/02/12 12:07:52;;;;;;;;;;;22.40;99.90;;;;;;5024288;28;20044;-67
2023/02/12 12:10:36;;;;;;;;;;;22.40;99.90;;;;;;5024589;28;19998;-68
2023/02/12 12:13:04;;;;;;;;;;;22.40;99.90;;;;;;5018581;28;19990;-60
2023/02/12 12:21:14;;;;;;;;;;;22.40;99.90;;;;;;5027423;28;19956;-65
2023/02/12 12:23:42;;;;;;;;;;;22.40;99.90;;;;;;5032349;28;19909;-65
2023/02/12 12:26:21;;;;;;;;;;;22.50;99.90;;;;;;5026133;28;19913;-60
2023/02/12 12:28:54;;;;;;;;;;;22.50;99.90;;;;;;5022782;28;20353;-69
2023/02/12 12:31:35;;;;;;;;;;;22.50;99.90;;;;;;5025123;28;20031;-69
2023/02/12 12:34:12;;;;;;;;;;;22.40;99.90;;;;;;5016450;28;19913;-60
2023/02/12 12:36:57;;;;;;;;;;;22.40;99.90;;;;;;5013458;28;19916;-69
2023/02/12 12:39:27;;;;;;;;;;;22.40;99.90;;;;;;5037989;28;19912;-68
2023/02/12 12:41:56;;;;;;;;;;;22.30;99.90;;;;;;5021595;28;20004;-61
2023/02/12 12:44:46;;;;;;;;;;;22.30;99.90;;;;;;5016828;28;20366;-60
2023/02/12 12:47:38;;;;;;;;;;;22.40;99.90;;;;;;5019948;28;20384;-60
2023/02/12 12:50:04;;;;;;;;;;;22.30;99.90;;;;;;5013442;28;20000;-68
2023/02/12 12:52:30;;;;;;;;;;;22.30;99.90;;;;;;5030138;28;20404;-60
2023/02/12 12:55:15;;;;;;;;;;;22.40;99.90;;;;;;5007173;28;20282;-66
2023/02/12 12:57:48;;;;;;;;;;;22.40;99.90;;;;;;5021805;28;19920;-60
2023/02/12 13:00:17;;;;;;;;;;;22.50;99.90;;;;;;5020612;28;19917;-67
2023/02/12 13:02:58;;;;;;;;;;;22.40;99.90;;;;;;5030876;28;20429;-66
2023/02/12 13:05:43;;;;;;;;;;;22.30;99.90;;;;;;5019304;28;19917;-67
2023/02/12 13:08:27;;;;;;;;;;;22.30;99.90;;;;;;5031095;28;20332;-60
2023/02/12 13:11:00;;;;;;;;;;;22.30;99.90;;;;;;5026601;28;19913;-61
2023/02/12 13:13:38;;;;;;;;;;;22.30;99.90;;;;;;5030802;28;19912;-67
2023/02/12 13:16:10;;;;;;;;;;;22.30;99.90;;;;;;5030961;28;20071;-68
2023/02/12 13:18:50;;;;;;;;;;;22.40;99.90;;;;;;5030491;28;20350;-68
2023/02/12 13:21:19;;;;;;;;;;;22.30;99.90;;;;;;5030187;28;20087;-67
2023/02/12 13:23:46;;;;;;;;;;;22.60;99.90;;;;;;5025144;28;19952;-67
2023/02/12 13:26:29;;;;;;;;;;;22.50;99.90;;;;;;5023426;28;19917;-65
2023/02/12 13:29:12;;;;;;;;;;;22.50;99.90;;;;;;5036047;28;19916;-65
2023/02/12 13:31:44;;;;;;;;;;;22.50;99.90;;;;;;5031175;28;20008;-60
2023/02/12 13:34:13;;;;;;;;;;;22.60;99.90;;;;;;5027428;28;19917;-60
2023/02/12 13:36:41;;;;;;;;;;;22.70;99.90;;;;;;5021446;28;19920;-65
2023/02/12 13:39:07;;;;;;;;;;;22.70;99.90;;;;;;5023289;28;20384;-60
2023/02/12 13:41:34;;;;;;;;;;;22.70;99.90;;;;;;5029905;28;19913;-60
2023/02/12 13:44:20;;;;;;;;;;;22.70;99.90;;;;;;5030917;28;20250;-65
2023/02/12 13:47:05;;;;;;;;;;;22.70;99.90;;;;;;5028379;28;20266;-59
2023/02/12 13:49:44;;;;;;;;;;;22.70;99.90;;;;;;5031200;28;19913;-67
2023/02/12 13:52:18;;;;;;;;;;;22.60;99.90;;;;;;5026930;28;19909;-60
2023/02/12 13:54:45;;;;;;;;;;;22.60;99.90;;;;;;5027221;28;20270;-65
2023/02/12 13:57:13;;;;;;;;;;;22.70;99.90;;;;;;5026857;28;19913;-68
2023/02/12 13:59:43;;;;;;;;;;;22.70;99.90;;;;;;5030488;28;20318;-68
2023/02/12 14:02:28;;;;;;;;;;;22.70;99.90;;;;;;5033112;28;20398;-60
2023/02/12 14:05:00;;;;;;;;;;;22.70;99.90;;;;;;5031615;28;19924;-68
2023/02/12 14:07:47;;;;;;;;;;;22.70;99.90;;;;;;5026572;28;19909;-60
2023/02/12 14:10:30;;;;;;;;;;;22.70;99.90;;;;;;5025792;28;19956;-60
2023/02/12 14:13:16;;;;;;;;;;;22.70;99.90;;;;;;5023326;28;20374;-68
2023/02/12 14:15:49;;;;;;;;;;;22.60;99.90;;;;;;5016333;28;19988;-68
2023/02/12 14:18:22;;;;;;;;;;;22.60;99.90;;;;;;5022500;28;20399;-68
2023/02/12 14:21:11;;;;;;;;;;;22.50;99.90;;;;;;5017511;28;19940;-61
2023/02/12 14:23:38;;;;;;;;;;;22.60;99.90;;;;;;5015490;28;19910;-59
2023/02/12 14:26:07;;;;;;;;;;;22.50;99.90;;;;;;5023663;28;20262;-60
2023/02/12 14:28:36;;;;;;;;;;;22.50;99.90;;;;;;5019920;28;21117;-68
2023/02/12 14:31:18;;;;;;;;;;;22.60;99.90;;;;;;5015976;28;19909;-67
2023/02/12 14:33:45;;;;;;;;;;;22.60;99.90;;;;;;5016265;28;19909;-60
2023/02/12 14:36:31;;;;;;;;;;;22.70;99.90;;;;;;5020795;28;19917;-60
2023/02/12 14:39:00;;;;;;;;;;;22.70;99.90;;;;;;4948194;28;20378;-60
2023/02/12 14:41:40;;;;;;;;;;;22.70;99.90;;;;;;4950109;28;19911;-61
2023/02/12 14:44:22;;;;;;;;;;;22.60;99.90;;;;;;4954410;28;19918;-61
2023/02/12 14:46:54;;;;;;;;;;;22.60;99.90;;;;;;4945812;28;19914;-68